Time;durP1;ratioP1;P1;durP2;ratioP2;P2;SDS_P1;SDS_P2;PMS_P1;PMS_P2;Temp;Humidity;BMP_temperature;BMP_pressure;BME280_temperature;BME280_humidity;BME280_pressure;Samples;Min_cycle;Max_cycle;Signal;HPM_P1;HPM_P2
2022/08/04 00:02:29;;;;;;;1.42;0.50;;;23.70;99.90;;;;;;5075534;28;20207;-58
2022/08/04 00:05:03;;;;;;;0.60;0.50;;;23.60;99.90;;;;;;5075592;28;20169;-58
2022/08/04 00:08:08;;;;;;;0.88;0.70;;;23.60;99.90;;;;;;5058094;28;20171;-58
2022/08/04 00:10:37;;;;;;;0.60;0.60;;;23.50;99.90;;;;;;5053353;28;20190;-58
2022/08/04 00:13:04;;;;;;;0.45;0.40;;;23.40;99.90;;;;;;5074976;28;20209;-58
2022/08/04 00:15:32;;;;;;;0.52;0.52;;;23.40;99.90;;;;;;5057488;28;20186;-58
2022/08/04 00:18:02;;;;;;;0.50;0.45;;;23.30;99.90;;;;;;5075104;28;20206;-58
2022/08/04 00:20:39;;;;;;;1.65;0.73;;;23.20;99.90;;;;;;5074905;28;20198;-58
2022/08/04 00:23:06;;;;;;;0.52;0.52;;;23.20;99.90;;;;;;5075242;28;20677;-58
2022/08/04 00:25:32;;;;;;;0.70;0.70;;;23.20;99.90;;;;;;5075059;28;20179;-58
2022/08/04 00:28:00;;;;;;;0.70;0.60;;;23.10;99.90;;;;;;5074909;28;20689;-58
2022/08/04 00:30:26;;;;;;;1.08;1.05;;;23.10;99.90;;;;;;5074904;28;20171;-58
2022/08/04 00:32:53;;;;;;;0.70;0.70;;;23.20;99.90;;;;;;5057050;28;20208;-58
2022/08/04 00:35:19;;;;;;;0.98;0.52;;;23.10;99.90;;;;;;5074932;28;20175;-58
2022/08/04 00:37:46;;;;;;;0.40;0.40;;;23.10;99.90;;;;;;5074751;28;20263;-58
2022/08/04 00:40:31;;;;;;;1.38;1.10;;;23.10;99.90;;;;;;5074709;28;20186;-58
2022/08/04 00:43:32;;;;;;;1.17;0.65;;;23.10;99.90;;;;;;5056763;28;20186;-57
2022/08/04 00:46:12;;;;;;;1.27;0.57;;;23.20;99.90;;;;;;5074976;28;20181;-58
2022/08/04 00:49:02;;;;;;;0.70;0.70;;;23.10;99.90;;;;;;5074664;28;20246;-58
2022/08/04 00:51:51;;;;;;;0.70;0.50;;;23.00;99.90;;;;;;5074464;28;20273;-58
2022/08/04 00:54:52;;;;;;;0.73;0.55;;;23.00;99.90;;;;;;5073937;28;20163;-58
2022/08/04 00:57:39;;;;;;;0.60;0.60;;;23.10;99.90;;;;;;5056189;28;20681;-58
2022/08/04 01:00:12;;;;;;;0.60;0.60;;;23.00;99.90;;;;;;5074228;28;20178;-58
2022/08/04 01:02:50;;;;;;;0.75;0.70;;;22.90;99.90;;;;;;5074130;28;20175;-58
2022/08/04 01:05:41;;;;;;;0.93;0.63;;;22.80;99.90;;;;;;5056411;28;20261;-58
2022/08/04 01:08:45;;;;;;;1.00;0.75;;;22.80;99.90;;;;;;5074148;28;20170;-58
2022/08/04 01:11:28;;;;;;;0.57;0.57;;;22.80;99.90;;;;;;5056188;28;20631;-58
2022/08/04 01:14:22;;;;;;;0.88;0.80;;;22.70;99.90;;;;;;5074019;28;20190;-58
2022/08/04 01:16:51;;;;;;;1.00;0.90;;;22.60;99.90;;;;;;5073808;28;20206;-58
2022/08/04 01:19:47;;;;;;;1.17;1.00;;;22.60;99.90;;;;;;5074020;28;20256;-58
2022/08/04 01:22:21;;;;;;;1.40;0.77;;;22.70;99.90;;;;;;5064429;28;20187;-58
2022/08/04 01:25:12;;;;;;;0.88;0.80;;;22.70;99.90;;;;;;5073743;28;20543;-58
2022/08/04 01:28:05;;;;;;;1.25;0.90;;;22.70;99.90;;;;;;5073994;28;20171;-58
2022/08/04 01:30:32;;;;;;;1.27;0.88;;;22.40;99.90;;;;;;5073713;28;20590;-58
2022/08/04 01:33:13;;;;;;;0.70;0.70;;;22.30;99.90;;;;;;5073500;28;20534;-57
2022/08/04 01:35:39;;;;;;;1.63;0.95;;;22.20;99.90;;;;;;5073647;28;20651;-58
2022/08/04 01:38:33;;;;;;;0.52;0.52;;;22.20;99.90;;;;;;5073639;28;20245;-58
2022/08/04 01:41:06;;;;;;;0.85;0.60;;;22.20;99.90;;;;;;5055732;28;20205;-58
2022/08/04 01:43:34;;;;;;;1.05;0.77;;;22.10;99.90;;;;;;5073538;28;20627;-58
2022/08/04 01:46:02;;;;;;;1.15;0.90;;;22.00;99.90;;;;;;5055464;28;20170;-58
2022/08/04 01:48:29;;;;;;;1.92;0.90;;;22.00;99.90;;;;;;5073589;28;20170;-58
2022/08/04 01:51:02;;;;;;;0.75;0.70;;;22.00;99.90;;;;;;5073409;28;20700;-58
2022/08/04 01:53:35;;;;;;;0.60;0.60;;;22.00;99.90;;;;;;5073441;28;20624;-58
2022/08/04 01:56:03;;;;;;;0.90;0.70;;;22.00;99.90;;;;;;5073114;28;20167;-58
2022/08/04 01:58:31;;;;;;;1.02;0.70;;;21.90;99.90;;;;;;5073246;28;20171;-58
2022/08/04 02:01:07;;;;;;;0.73;0.73;;;21.90;99.90;;;;;;5073490;28;20193;-57
2022/08/04 02:03:35;;;;;;;1.02;0.70;;;21.80;99.90;;;;;;5073516;28;20497;-58
2022/08/04 02:06:14;;;;;;;0.88;0.70;;;21.90;99.90;;;;;;5073442;28;20178;-58
2022/08/04 02:09:01;;;;;;;1.25;0.73;;;21.80;99.90;;;;;;5073270;28;20207;-58
2022/08/04 02:11:28;;;;;;;0.63;0.60;;;21.80;99.90;;;;;;5073268;28;20175;-58
2022/08/04 02:14:39;;;;;;;0.95;0.77;;;21.80;99.90;;;;;;5073165;28;20548;-58
2022/08/04 02:17:13;;;;;;;1.70;1.10;;;21.70;99.90;;;;;;5072751;28;20242;-58
2022/08/04 02:19:53;;;;;;;1.00;0.60;;;21.70;99.90;;;;;;5073348;28;20166;-58
2022/08/04 02:22:23;;;;;;;0.75;0.75;;;21.70;99.90;;;;;;5073268;28;20174;-58
2022/08/04 02:24:54;;;;;;;1.73;0.80;;;21.70;99.90;;;;;;5073061;28;20167;-58
2022/08/04 02:27:28;;;;;;;0.45;0.45;;;21.70;99.90;;;;;;5073131;28;20183;-58
2022/08/04 02:29:59;;;;;;;1.65;0.73;;;21.70;99.90;;;;;;5073180;28;20167;-58
2022/08/04 02:32:29;;;;;;;0.60;0.60;;;21.60;99.90;;;;;;5073041;28;20167;-58
2022/08/04 02:35:06;;;;;;;0.70;0.50;;;21.50;99.90;;;;;;5073060;28;20574;-58
2022/08/04 02:37:33;;;;;;;1.08;0.80;;;21.50;99.90;;;;;;5072943;28;20202;-58
2022/08/04 02:40:03;;;;;;;0.60;0.60;;;21.50;99.90;;;;;;5054979;28;20183;-58
2022/08/04 02:42:28;;;;;;;1.05;0.50;;;21.40;99.90;;;;;;5072817;28;20535;-58
2022/08/04 02:44:57;;;;;;;0.80;0.80;;;21.40;99.90;;;;;;5074416;28;20269;-58
2022/08/04 02:47:25;;;;;;;0.65;0.60;;;21.40;99.90;;;;;;5076825;28;20554;-58
2022/08/04 02:49:51;;;;;;;0.95;0.60;;;21.40;99.90;;;;;;5076777;28;20253;-58
2022/08/04 02:52:22;;;;;;;0.50;0.50;;;21.50;99.90;;;;;;5076764;28;20178;-58
2022/08/04 02:54:52;;;;;;;0.70;0.68;;;21.50;99.90;;;;;;5076938;28;20190;-58
2022/08/04 02:57:20;;;;;;;0.55;0.50;;;21.40;99.90;;;;;;5075709;28;20230;-58
2022/08/04 03:00:01;;;;;;;0.52;0.52;;;21.40;99.90;;;;;;5058186;28;20632;-58
2022/08/04 03:02:46;;;;;;;0.70;0.63;;;21.40;99.90;;;;;;5076556;28;20178;-58
2022/08/04 03:05:23;;;;;;;1.85;0.50;;;21.50;99.90;;;;;;5025591;28;20186;-58
2022/08/04 03:08:07;;;;;;;0.82;0.73;;;21.40;99.90;;;;;;5076645;28;20265;-59
2022/08/04 03:10:54;;;;;;;1.60;0.77;;;21.40;99.90;;;;;;5076426;28;20182;-58
2022/08/04 03:13:46;;;;;;;0.45;0.45;;;21.40;99.90;;;;;;5076207;28;20204;-59
2022/08/04 03:16:59;;;;;;;1.02;0.93;;;21.40;99.90;;;;;;5037648;28;20218;-58
2022/08/04 03:19:33;;;;;;;0.57;0.57;;;21.30;99.90;;;;;;5067128;28;20191;-59
2022/08/04 03:22:24;;;;;;;1.15;0.80;;;21.10;99.90;;;;;;5076394;28;20173;-58
2022/08/04 03:24:55;;;;;;;1.00;0.70;;;21.10;99.90;;;;;;5076223;28;20167;-58
2022/08/04 03:28:00;;;;;;;0.60;0.60;;;21.00;99.90;;;;;;5076165;28;20183;-58
2022/08/04 03:30:34;;;;;;;0.98;0.73;;;21.00;99.90;;;;;;5076254;28;20169;-58
2022/08/04 03:33:25;;;;;;;0.93;0.90;;;21.00;99.90;;;;;;5076106;28;20527;-57
2022/08/04 03:36:28;;;;;;;0.60;0.57;;;21.00;99.90;;;;;;5075789;28;20163;-58
2022/08/04 03:39:18;;;;;;;0.57;0.57;;;21.10;99.90;;;;;;5076041;28;20244;-58
2022/08/04 03:42:09;;;;;;;0.85;0.60;;;21.00;99.90;;;;;;5075743;28;20175;-57
2022/08/04 03:45:05;;;;;;;0.50;0.50;;;21.10;99.90;;;;;;5075738;28;20220;-57
2022/08/04 03:47:49;;;;;;;0.75;0.70;;;21.10;99.90;;;;;;5076076;28;20177;-58
2022/08/04 03:50:33;;;;;;;0.50;0.47;;;21.00;99.90;;;;;;5075751;28;20240;-58
2022/08/04 03:53:08;;;;;;;0.60;0.60;;;21.00;99.90;;;;;;5075594;28;20205;-58
2022/08/04 03:55:56;;;;;;;1.02;0.80;;;21.00;99.90;;;;;;5075738;28;20216;-58
2022/08/04 03:58:47;;;;;;;1.33;0.70;;;20.90;99.90;;;;;;5075669;28;20187;-57
2022/08/04 04:01:15;;;;;;;1.00;0.70;;;20.90;99.90;;;;;;5075250;28;20174;-58
2022/08/04 04:03:55;;;;;;;0.52;0.52;;;21.00;99.90;;;;;;5075887;28;20166;-58
2022/08/04 04:06:40;;;;;;;0.50;0.50;;;20.90;99.90;;;;;;5075518;28;20249;-58
2022/08/04 04:09:41;;;;;;;0.85;0.63;;;20.80;99.90;;;;;;5075449;28;20174;-57
2022/08/04 04:12:55;;;;;;;0.90;0.68;;;20.90;99.90;;;;;;5028285;28;20651;-57
2022/08/04 04:15:38;;;;;;;1.67;0.57;;;21.00;99.90;;;;;;4974191;28;20655;-57
2022/08/04 04:18:36;;;;;;;1.40;0.60;;;21.00;99.90;;;;;;4974148;28;20254;-57
2022/08/04 04:21:19;;;;;;;0.63;0.60;;;20.90;99.90;;;;;;5062282;28;20197;-57
2022/08/04 04:24:01;;;;;;;1.02;0.57;;;20.80;99.90;;;;;;5057233;28;20651;-57
2022/08/04 04:27:07;;;;;;;0.50;0.50;;;20.80;99.90;;;;;;5074864;28;20174;-58
2022/08/04 04:29:51;;;;;;;0.40;0.40;;;20.80;99.90;;;;;;5075323;28;20166;-57
2022/08/04 04:32:34;;;;;;;0.77;0.57;;;20.60;99.90;;;;;;5074827;28;20189;-57
2022/08/04 04:35:29;;;;;;;1.38;0.60;;;20.70;99.90;;;;;;5074980;28;20211;-57
2022/08/04 04:38:19;;;;;;;0.93;0.60;;;20.70;99.90;;;;;;5074984;28;20206;-57
2022/08/04 04:41:13;;;;;;;0.63;0.63;;;20.60;99.90;;;;;;5075061;28;20206;-58
2022/08/04 04:44:15;;;;;;;1.23;0.98;;;20.70;99.90;;;;;;5074842;28;20181;-58
2022/08/04 04:47:06;;;;;;;0.60;0.60;;;20.70;99.90;;;;;;5074556;28;20189;-59
2022/08/04 04:49:59;;;;;;;0.80;0.75;;;20.70;99.90;;;;;;5074797;28;20174;-53
2022/08/04 04:52:44;;;;;;;1.02;0.70;;;20.70;99.90;;;;;;5074806;28;20197;-57
2022/08/04 04:55:16;;;;;;;0.40;0.35;;;20.70;99.90;;;;;;5073188;28;20272;-57
2022/08/04 04:57:45;;;;;;;0.63;0.63;;;20.70;99.90;;;;;;5073534;28;20255;-56
2022/08/04 05:00:12;;;;;;;0.50;0.50;;;20.70;99.90;;;;;;5074061;28;20227;-57
2022/08/04 05:02:57;;;;;;;0.70;0.70;;;20.70;99.90;;;;;;5074283;28;20175;-57
2022/08/04 05:05:50;;;;;;;0.80;0.75;;;20.70;99.90;;;;;;5074137;28;20644;-56
2022/08/04 05:08:34;;;;;;;0.85;0.85;;;20.70;99.90;;;;;;5073282;28;20178;-57
2022/08/04 05:11:19;;;;;;;1.00;0.63;;;20.70;99.90;;;;;;5074320;28;20175;-56
2022/08/04 05:13:57;;;;;;;1.50;0.82;;;20.80;99.90;;;;;;5074530;28;20540;-56
2022/08/04 05:16:55;;;;;;;0.68;0.57;;;20.80;99.90;;;;;;5073837;28;20201;-56
2022/08/04 05:19:48;;;;;;;1.05;0.75;;;20.80;99.90;;;;;;5073979;28;20548;-56
2022/08/04 05:22:40;;;;;;;0.63;0.63;;;20.80;99.90;;;;;;5073863;28;20166;-57
2022/08/04 05:25:33;;;;;;;1.05;0.93;;;20.80;99.90;;;;;;5073962;28;20198;-57
2022/08/04 05:28:10;;;;;;;1.70;0.80;;;20.70;99.90;;;;;;5073961;28;20501;-56
2022/08/04 05:30:47;;;;;;;0.60;0.57;;;20.80;99.90;;;;;;5055801;28;20201;-56
2022/08/04 05:33:15;;;;;;;0.90;0.70;;;20.80;99.90;;;;;;5073911;28;20642;-57
2022/08/04 05:35:54;;;;;;;1.20;0.70;;;20.70;99.90;;;;;;5055946;28;20186;-56
2022/08/04 05:38:25;;;;;;;0.93;0.60;;;20.80;99.90;;;;;;5073643;28;20636;-54
2022/08/04 05:40:53;;;;;;;0.77;0.63;;;20.80;99.90;;;;;;5073758;28;20612;-57
2022/08/04 05:43:22;;;;;;;0.68;0.68;;;20.90;99.90;;;;;;5073445;28;20624;-57
2022/08/04 05:45:49;;;;;;;1.20;0.73;;;20.90;99.90;;;;;;5056025;28;20521;-56
2022/08/04 05:48:16;;;;;;;0.90;0.70;;;21.00;99.90;;;;;;5073441;28;20695;-57
2022/08/04 05:50:43;;;;;;;0.73;0.73;;;21.00;99.90;;;;;;5073477;28;20532;-57
2022/08/04 05:53:11;;;;;;;1.00;0.80;;;21.00;99.90;;;;;;5073517;28;20667;-56
2022/08/04 05:55:37;;;;;;;0.60;0.60;;;21.00;99.90;;;;;;5073728;28;20203;-57
2022/08/04 05:58:04;;;;;;;0.93;0.63;;;21.00;99.90;;;;;;5073194;28;20721;-56
2022/08/04 06:00:32;;;;;;;0.70;0.50;;;21.00;99.90;;;;;;5073786;28;20185;-56
2022/08/04 06:02:59;;;;;;;0.47;0.47;;;21.00;99.90;;;;;;5073502;28;20175;-56
2022/08/04 06:05:25;;;;;;;0.60;0.60;;;21.20;99.90;;;;;;5073386;28;20166;-56
2022/08/04 06:07:51;;;;;;;0.95;0.80;;;21.40;99.90;;;;;;5073348;28;20258;-56
2022/08/04 06:10:17;;;;;;;1.08;0.77;;;21.40;99.90;;;;;;5055114;28;20212;-57
2022/08/04 06:12:48;;;;;;;0.85;0.73;;;21.40;99.90;;;;;;5073022;28;20229;-57
2022/08/04 06:15:18;;;;;;;0.80;0.65;;;21.50;99.90;;;;;;5073418;28;20170;-57
2022/08/04 06:17:55;;;;;;;1.40;0.80;;;21.60;99.90;;;;;;5073099;28;20694;-57
2022/08/04 06:20:25;;;;;;;1.95;1.20;;;21.50;99.90;;;;;;5079800;28;20166;-56
2022/08/04 06:22:57;;;;;;;1.65;1.40;;;21.50;99.90;;;;;;5079735;28;20177;-56
2022/08/04 06:25:30;;;;;;;1.65;1.20;;;21.50;99.90;;;;;;5061973;28;20179;-56
2022/08/04 06:27:57;;;;;;;2.38;1.20;;;21.50;99.90;;;;;;5079939;28;20171;-57
2022/08/04 06:30:26;;;;;;;2.78;1.13;;;21.50;99.90;;;;;;5079756;28;20529;-56
2022/08/04 06:32:56;;;;;;;2.45;1.40;;;21.50;99.90;;;;;;5079658;28;20159;-57
2022/08/04 06:35:24;;;;;;;3.50;1.80;;;21.60;99.90;;;;;;5079682;28;20163;-56
2022/08/04 06:37:53;;;;;;;2.17;1.48;;;21.70;99.90;;;;;;5079794;28;20671;-56
2022/08/04 06:40:21;;;;;;;2.75;1.77;;;21.60;99.90;;;;;;5079717;28;20174;-56
2022/08/04 06:42:49;;;;;;;2.38;1.60;;;21.60;99.90;;;;;;5079656;28;20186;-56
2022/08/04 06:45:15;;;;;;;5.65;2.17;;;21.90;99.90;;;;;;5079629;28;20167;-57
2022/08/04 06:47:43;;;;;;;3.80;1.63;;;22.00;99.90;;;;;;5079600;28;20174;-57
2022/08/04 06:50:10;;;;;;;4.63;2.05;;;22.10;99.90;;;;;;5079437;28;20171;-56
2022/08/04 06:52:37;;;;;;;4.97;2.15;;;22.10;99.90;;;;;;5079416;28;20624;-57
2022/08/04 06:55:04;;;;;;;4.55;2.03;;;22.00;99.90;;;;;;5079655;28;20186;-57
2022/08/04 06:57:32;;;;;;;2.95;2.00;;;22.00;99.90;;;;;;5079568;28;20209;-57
2022/08/04 07:00:17;;;;;;;3.58;2.53;;;22.20;99.90;;;;;;5079280;28;20564;-57
2022/08/04 07:02:49;;;;;;;6.07;2.38;;;22.40;99.90;;;;;;5061599;28;20170;-58
2022/08/04 07:05:16;;;;;;;4.00;2.08;;;22.60;99.90;;;;;;5079552;28;20216;-57
2022/08/04 07:07:43;;;;;;;4.45;2.58;;;22.60;99.90;;;;;;5079476;28;20178;-58
2022/08/04 07:10:10;;;;;;;5.03;2.25;;;22.60;99.90;;;;;;5079283;28;20222;-57
2022/08/04 07:12:38;;;;;;;5.70;2.25;;;22.70;99.90;;;;;;5061387;28;20182;-57
2022/08/04 07:15:05;;;;;;;4.30;2.45;;;22.80;99.90;;;;;;5079243;28;20171;-58
2022/08/04 07:17:32;;;;;;;3.20;1.92;;;22.90;99.90;;;;;;5079121;28;20260;-58
2022/08/04 07:19:58;;;;;;;4.38;2.45;;;23.00;99.90;;;;;;5079386;28;20653;-58
2022/08/04 07:22:26;;;;;;;4.60;2.30;;;22.80;99.90;;;;;;5061662;28;20253;-58
2022/08/04 07:24:56;;;;;;;3.83;2.05;;;22.90;99.90;;;;;;5079202;28;20569;-58
2022/08/04 07:27:22;;;;;;;3.83;2.25;;;22.70;99.90;;;;;;5079123;28;20638;-57
2022/08/04 07:29:48;;;;;;;3.58;2.10;;;22.70;99.90;;;;;;5078676;28;20178;-57
2022/08/04 07:32:15;;;;;;;2.33;1.70;;;22.80;99.90;;;;;;5075583;28;20528;-58
2022/08/04 07:34:42;;;;;;;3.33;2.17;;;22.90;99.90;;;;;;5076106;28;20308;-58
2022/08/04 07:37:08;;;;;;;3.50;2.00;;;23.10;99.90;;;;;;5076074;28;20207;-59
2022/08/04 07:39:35;;;;;;;4.35;2.10;;;23.30;99.90;;;;;;5075900;28;20339;-58
2022/08/04 07:42:02;;;;;;;4.70;2.40;;;23.40;99.90;;;;;;5075653;28;20666;-57
2022/08/04 07:44:30;;;;;;;3.60;1.98;;;23.60;99.90;;;;;;5057848;28;20253;-58
2022/08/04 07:46:56;;;;;;;3.53;1.80;;;23.70;99.90;;;;;;5041139;28;20179;-57
2022/08/04 07:49:25;;;;;;;3.55;2.50;;;23.80;99.90;;;;;;5075686;28;20248;-58
2022/08/04 07:51:52;;;;;;;3.63;1.85;;;23.70;99.90;;;;;;5075760;28;20693;-58
2022/08/04 07:54:18;;;;;;;3.38;1.95;;;23.60;99.90;;;;;;5075582;28;20171;-58
2022/08/04 07:56:44;;;;;;;5.18;2.28;;;23.70;99.90;;;;;;5057608;28;20248;-57
2022/08/04 07:59:10;;;;;;;4.03;2.25;;;23.60;99.90;;;;;;5057587;28;20536;-58
2022/08/04 08:01:36;;;;;;;2.75;1.77;;;23.60;99.90;;;;;;5075669;28;20178;-57
2022/08/04 08:04:06;;;;;;;3.03;1.88;;;23.60;99.90;;;;;;5075424;28;20174;-58
2022/08/04 08:06:34;;;;;;;2.50;1.33;;;23.60;99.90;;;;;;5075613;28;20636;-58
2022/08/04 08:09:05;;;;;;;1.92;1.60;;;23.50;99.90;;;;;;5075277;28;20171;-58
2022/08/04 08:11:31;;;;;;;2.67;1.45;;;23.60;99.90;;;;;;5058038;28;20220;-58
2022/08/04 08:13:57;;;;;;;1.88;1.23;;;23.60;99.90;;;;;;5075128;28;20195;-57
2022/08/04 08:16:23;;;;;;;1.65;1.30;;;23.60;99.90;;;;;;5075178;28;20532;-58
2022/08/04 08:18:49;;;;;;;1.70;1.30;;;23.60;99.90;;;;;;5075293;28;20186;-58
2022/08/04 08:21:19;;;;;;;1.70;1.30;;;23.60;99.90;;;;;;5075211;28;20532;-58
2022/08/04 08:23:44;;;;;;;1.63;1.10;;;23.50;99.90;;;;;;5074934;28;20217;-57
2022/08/04 08:26:10;;;;;;;1.42;1.30;;;23.40;99.90;;;;;;5074982;28;20209;-58
2022/08/04 08:28:36;;;;;;;1.40;1.10;;;23.40;99.90;;;;;;5075147;28;20182;-58
2022/08/04 08:31:02;;;;;;;2.28;1.10;;;23.30;99.90;;;;;;5075145;28;20282;-57
2022/08/04 08:33:28;;;;;;;2.45;1.02;;;23.20;99.90;;;;;;5074786;28;20170;-58
2022/08/04 08:35:57;;;;;;;1.83;1.10;;;23.00;99.90;;;;;;5074841;28;20624;-58
2022/08/04 08:38:48;;;;;;;1.23;1.13;;;22.90;99.90;;;;;;5074683;28;20245;-58
2022/08/04 08:41:44;;;;;;;1.75;1.10;;;22.70;99.90;;;;;;5074845;28;20174;-58
2022/08/04 08:44:28;;;;;;;2.47;1.20;;;22.60;99.90;;;;;;5074429;28;20170;-58
2022/08/04 08:47:12;;;;;;;3.47;1.30;;;22.50;99.90;;;;;;5074640;28;20174;-58
2022/08/04 08:50:10;;;;;;;2.00;1.30;;;22.30;99.90;;;;;;5074475;28;20639;-59
2022/08/04 08:52:41;;;;;;;1.35;1.02;;;22.30;99.90;;;;;;5019154;28;20178;-57
2022/08/04 08:55:23;;;;;;;1.98;1.50;;;22.30;99.90;;;;;;5074632;28;20659;-58
2022/08/04 08:57:58;;;;;;;1.85;1.17;;;22.30;99.90;;;;;;5074602;28;20247;-57
2022/08/04 09:01:19;;;;;;;2.00;1.10;;;22.30;99.90;;;;;;5074475;28;20225;-58
2022/08/04 09:04:06;;;;;;;1.80;1.30;;;22.30;99.90;;;;;;5034913;28;20183;-57
2022/08/04 09:06:41;;;;;;;1.42;1.27;;;22.30;99.90;;;;;;5074257;28;20178;-58
2022/08/04 09:09:07;;;;;;;1.48;1.38;;;22.30;99.90;;;;;;5074147;28;20178;-58
2022/08/04 09:11:42;;;;;;;2.30;1.55;;;22.20;99.90;;;;;;5074135;28;20664;-57
2022/08/04 09:14:23;;;;;;;2.40;1.40;;;22.20;99.90;;;;;;5073997;28;20594;-57
2022/08/04 09:17:05;;;;;;;1.38;1.13;;;22.20;99.90;;;;;;5056136;28;20272;-58
2022/08/04 09:19:47;;;;;;;1.55;1.45;;;22.10;99.90;;;;;;5073987;28;20528;-58
2022/08/04 09:22:39;;;;;;;2.00;1.30;;;21.80;99.90;;;;;;5073921;28;20651;-57
2022/08/04 09:25:08;;;;;;;2.78;1.73;;;21.70;99.90;;;;;;5035517;28;20182;-58
2022/08/04 09:27:49;;;;;;;2.13;1.60;;;21.70;99.90;;;;;;5073812;28;20262;-58
2022/08/04 09:30:18;;;;;;;1.30;1.10;;;21.60;99.90;;;;;;5073134;28;20171;-58
2022/08/04 09:33:05;;;;;;;1.67;1.23;;;21.80;99.90;;;;;;5054717;28;20171;-57
2022/08/04 09:35:43;;;;;;;1.35;1.08;;;21.90;99.90;;;;;;5072947;28;20166;-58
2022/08/04 09:38:34;;;;;;;4.15;1.38;;;22.10;99.90;;;;;;5072845;28;20202;-57
2022/08/04 09:41:03;;;;;;;1.80;1.35;;;22.20;99.90;;;;;;5072667;28;20273;-58
2022/08/04 09:44:08;;;;;;;2.05;1.23;;;22.20;99.90;;;;;;5072745;28;20167;-58
2022/08/04 09:46:52;;;;;;;1.42;1.10;;;22.30;99.90;;;;;;5043668;28;20248;-57
2022/08/04 09:49:30;;;;;;;2.35;1.63;;;22.40;99.90;;;;;;5072530;28;20175;-58
2022/08/04 09:52:42;;;;;;;1.67;1.35;;;22.50;99.90;;;;;;5072823;28;20171;-55
2022/08/04 09:55:16;;;;;;;1.42;1.08;;;22.50;99.90;;;;;;5034850;28;20181;-57
2022/08/04 09:57:42;;;;;;;1.55;1.30;;;22.50;99.90;;;;;;5072455;28;20190;-58
2022/08/04 10:00:10;;;;;;;2.40;1.05;;;22.60;99.90;;;;;;5072574;28;20177;-57
2022/08/04 10:02:43;;;;;;;1.40;1.27;;;22.70;99.90;;;;;;5054688;28;20550;-58
2022/08/04 10:05:48;;;;;;;1.27;1.17;;;22.80;99.90;;;;;;5072393;28;20205;-57
2022/08/04 10:08:20;;;;;;;1.60;1.30;;;22.80;99.90;;;;;;5050679;28;20190;-58
2022/08/04 10:11:22;;;;;;;1.42;1.17;;;22.90;99.90;;;;;;5072336;28;20264;-57
2022/08/04 10:14:03;;;;;;;1.40;1.30;;;22.90;99.90;;;;;;5056304;28;20221;-58
2022/08/04 10:16:49;;;;;;;1.48;1.10;;;23.10;99.90;;;;;;5072374;28;20202;-58
2022/08/04 10:19:27;;;;;;;2.97;1.20;;;23.60;99.90;;;;;;5072417;28;20257;-58
2022/08/04 10:22:16;;;;;;;1.60;1.00;;;23.80;99.90;;;;;;5072108;28;20733;-58
2022/08/04 10:25:21;;;;;;;2.58;1.20;;;24.30;99.90;;;;;;5054036;28;20163;-58
2022/08/04 10:27:54;;;;;;;1.42;1.33;;;24.60;99.90;;;;;;5072299;28;20174;-58
2022/08/04 10:30:21;;;;;;;1.95;1.65;;;24.60;99.90;;;;;;5072146;28;20632;-58
2022/08/04 10:33:19;;;;;;;1.80;1.52;;;25.00;99.90;;;;;;5054415;28;20205;-57
2022/08/04 10:35:49;;;;;;;2.60;1.25;;;25.20;99.90;;;;;;5072311;28;20641;-57
2022/08/04 10:38:24;;;;;;;1.58;1.10;;;25.20;99.90;;;;;;5072163;28;20256;-58
2022/08/04 10:41:08;;;;;;;2.28;1.35;;;25.30;99.90;;;;;;5071759;28;20186;-57
2022/08/04 10:43:55;;;;;;;1.48;1.10;;;25.30;99.90;;;;;;5072245;28;20605;-57
2022/08/04 10:46:29;;;;;;;2.03;1.02;;;25.00;99.90;;;;;;5072111;28;20178;-57
2022/08/04 10:49:13;;;;;;;1.20;1.10;;;24.50;99.90;;;;;;5072066;28;20170;-58
2022/08/04 10:51:45;;;;;;;1.70;1.00;;;24.40;99.90;;;;;;5071969;28;20260;-58
2022/08/04 10:54:16;;;;;;;1.13;0.80;;;24.60;99.90;;;;;;5072177;28;20228;-57
2022/08/04 10:57:07;;;;;;;1.33;0.90;;;24.60;99.90;;;;;;5072002;28;20225;-59
2022/08/04 10:59:52;;;;;;;0.90;0.80;;;24.90;99.90;;;;;;5071942;28;20182;-57
2022/08/04 11:02:34;;;;;;;1.85;0.98;;;25.30;99.90;;;;;;5071797;28;20216;-58
2022/08/04 11:05:10;;;;;;;1.38;0.90;;;25.80;99.90;;;;;;5072293;28;20162;-57
2022/08/04 11:07:39;;;;;;;0.90;0.90;;;25.90;99.90;;;;;;5075658;28;20170;-57
2022/08/04 11:10:06;;;;;;;1.30;0.70;;;26.10;99.90;;;;;;5075411;28;20162;-57
2022/08/04 11:12:33;;;;;;;0.60;0.60;;;26.20;99.90;;;;;;5075241;28;20186;-56
2022/08/04 11:15:08;;;;;;;1.15;1.02;;;26.50;99.90;;;;;;5075540;28;20577;-57
2022/08/04 11:17:49;;;;;;;1.40;0.90;;;26.60;99.90;;;;;;5075430;28;20256;-57
2022/08/04 11:20:54;;;;;;;0.73;0.70;;;26.50;99.90;;;;;;5075353;28;20668;-57
2022/08/04 11:23:27;;;;;;;0.60;0.60;;;26.40;99.90;;;;;;4974239;28;20178;-57
2022/08/04 11:26:13;;;;;;;0.60;0.60;;;26.40;99.90;;;;;;5062449;28;20205;-58
2022/08/04 11:29:00;;;;;;;0.73;0.73;;;26.50;99.90;;;;;;5075202;28;20570;-57
2022/08/04 11:31:40;;;;;;;0.70;0.70;;;26.40;99.90;;;;;;5075219;28;20220;-58
2022/08/04 11:34:25;;;;;;;0.57;0.57;;;26.80;99.90;;;;;;5075253;28;20166;-58
2022/08/04 11:37:12;;;;;;;0.40;0.40;;;26.90;99.90;;;;;;5075142;28;20551;-58
2022/08/04 11:40:21;;;;;;;0.60;0.55;;;26.90;99.90;;;;;;5074948;28;20253;-58
2022/08/04 11:43:17;;;;;;;0.80;0.80;;;27.00;99.90;;;;;;5052940;28;20196;-57
2022/08/04 11:46:00;;;;;;;1.40;0.70;;;27.30;99.90;;;;;;5073511;28;20596;-58
2022/08/04 11:48:34;;;;;;;0.73;0.50;;;27.30;99.90;;;;;;5074983;28;20193;-58
2022/08/04 11:51:04;;;;;;;0.82;0.70;;;27.40;99.90;;;;;;5057311;28;20206;-58
2022/08/04 11:53:30;;;;;;;1.17;0.80;;;27.50;99.90;;;;;;5074839;28;20167;-58
2022/08/04 11:56:00;;;;;;;1.15;0.73;;;27.60;99.90;;;;;;5040214;28;20220;-57
2022/08/04 11:58:27;;;;;;;1.25;0.68;;;27.80;99.90;;;;;;5074419;28;20234;-57
2022/08/04 12:00:52;;;;;;;1.02;0.70;;;27.90;99.90;;;;;;5074789;28;20271;-58
2022/08/04 12:03:55;;;;;;;1.10;0.77;;;27.90;99.90;;;;;;5074707;28;20531;-58
2022/08/04 12:06:26;;;;;;;1.13;0.70;;;28.10;99.00;;;;;;5074519;28;20170;-58
2022/08/04 12:09:08;;;;;;;0.57;0.57;;;28.10;99.40;;;;;;5074482;28;20167;-58
2022/08/04 12:11:39;;;;;;;1.10;0.57;;;28.50;99.70;;;;;;5074392;28;20639;-58
2022/08/04 12:14:24;;;;;;;1.30;1.20;;;28.70;99.70;;;;;;5074420;28;20232;-58
2022/08/04 12:17:01;;;;;;;2.05;0.90;;;28.70;99.70;;;;;;5074288;28;20667;-58
2022/08/04 12:19:38;;;;;;;1.70;1.02;;;28.70;99.80;;;;;;5074210;28;20243;-58
2022/08/04 12:22:10;;;;;;;0.65;0.63;;;28.90;98.80;;;;;;5074146;28;20619;-58
2022/08/04 12:24:46;;;;;;;0.50;0.50;;;28.80;99.30;;;;;;5074312;28;20195;-58
2022/08/04 12:27:23;;;;;;;0.68;0.68;;;28.90;98.80;;;;;;5074155;28;20214;-57
2022/08/04 12:29:50;;;;;;;0.80;0.70;;;28.90;98.90;;;;;;5074011;28;20269;-58
2022/08/04 12:32:40;;;;;;;0.70;0.70;;;29.20;99.10;;;;;;5056107;28;20179;-58
2022/08/04 12:35:32;;;;;;;0.63;0.63;;;29.40;99.00;;;;;;5074084;28;20171;-58
2022/08/04 12:38:04;;;;;;;0.82;0.52;;;29.50;99.50;;;;;;5073806;28;20693;-57
2022/08/04 12:40:50;;;;;;;0.77;0.65;;;29.50;98.50;;;;;;5074028;28;20182;-58
2022/08/04 12:43:36;;;;;;;0.57;0.57;;;29.60;98.30;;;;;;5073879;28;20217;-58
2022/08/04 12:46:24;;;;;;;0.50;0.50;;;29.70;97.70;;;;;;5073778;28;20194;-57
2022/08/04 12:48:50;;;;;;;0.73;0.63;;;29.70;97.70;;;;;;5073103;28;20228;-58
2022/08/04 12:51:19;;;;;;;0.82;0.82;;;29.80;97.50;;;;;;5073815;28;20182;-58
2022/08/04 12:53:46;;;;;;;0.47;0.47;;;29.70;96.90;;;;;;5073667;28;20179;-57
2022/08/04 12:56:13;;;;;;;0.63;0.50;;;29.90;96.80;;;;;;5073509;28;20170;-58
2022/08/04 12:59:05;;;;;;;1.73;0.60;;;29.60;97.80;;;;;;5055404;28;20231;-58
2022/08/04 13:01:31;;;;;;;0.50;0.50;;;28.90;96.90;;;;;;5062232;28;20174;-58
2022/08/04 13:04:00;;;;;;;1.23;0.50;;;28.30;97.30;;;;;;5073440;28;20174;-58
2022/08/04 13:06:33;;;;;;;0.60;0.60;;;28.10;97.80;;;;;;5073258;28;20182;-58
2022/08/04 13:09:08;;;;;;;0.70;0.60;;;28.30;97.90;;;;;;5073290;28;20183;-57
2022/08/04 13:11:40;;;;;;;0.55;0.55;;;28.20;98.40;;;;;;5073144;28;20195;-58
2022/08/04 13:14:08;;;;;;;0.73;0.70;;;28.30;98.30;;;;;;5073372;28;20635;-58
2022/08/04 13:16:34;;;;;;;0.95;0.65;;;28.50;97.90;;;;;;5073243;28;20682;-58
2022/08/04 13:19:01;;;;;;;0.80;0.60;;;28.90;97.90;;;;;;5073127;28;20175;-57
2022/08/04 13:21:29;;;;;;;0.85;0.80;;;28.90;97.50;;;;;;5055125;28;20171;-58
2022/08/04 13:24:10;;;;;;;2.15;0.77;;;28.60;96.80;;;;;;5072876;28;20765;-58
2022/08/04 13:26:37;;;;;;;1.00;0.82;;;28.70;97.90;;;;;;5073130;28;20190;-58
2022/08/04 13:29:06;;;;;;;1.40;0.65;;;28.80;97.60;;;;;;5054355;28;20292;-58
2022/08/04 13:31:34;;;;;;;0.70;0.63;;;28.70;97.50;;;;;;5072959;28;20166;-56
2022/08/04 13:34:08;;;;;;;1.30;0.60;;;28.60;97.90;;;;;;5072862;28;20322;-58
2022/08/04 13:36:36;;;;;;;1.17;0.80;;;28.60;97.80;;;;;;5072826;28;20209;-58
2022/08/04 13:39:12;;;;;;;0.60;0.60;;;28.40;98.20;;;;;;5072668;28;20523;-58
2022/08/04 13:41:42;;;;;;;0.95;0.75;;;28.30;98.30;;;;;;5054795;28;20174;-58